sensor_id;sensor_type;location;lat;lon;timestamp;temperature;humidity
54824;DHT22;40724;53.196;5.980;2023-11-21T01:28:29;11.00;99.90
54824;DHT22;40724;53.196;5.980;2023-11-21T01:30:55;10.90;99.90
54824;DHT22;40724;53.196;5.980;2023-11-21T01:33:22;10.90;99.90
54824;DHT22;40724;53.196;5.980;2023-11-21T01:35:50;10.90;99.90
54824;DHT22;40724;53.196;5.980;2023-11-21T01:38:18;10.90;99.90
54824;DHT22;40724;53.196;5.980;2023-11-21T01:40:44;10.90;99.90
54824;DHT22;40724;53.196;5.980;2023-11-21T01:43:10;10.90;99.90
54824;DHT22;40724;53.196;5.980;2023-11-21T01:45:36;10.90;99.90
54824;DHT22;40724;53.196;5.980;2023-11-21T01:48:02;10.90;99.90
54824;DHT22;40724;53.196;5.980;2023-11-21T01:50:29;10.90;99.90
54824;DHT22;40724;53.196;5.980;2023-11-21T01:52:55;10.90;99.90
54824;DHT22;40724;53.196;5.980;2023-11-21T01:55:21;10.90;99.90
54824;DHT22;40724;53.196;5.980;2023-11-21T01:57:48;10.90;99.90
54824;DHT22;40724;53.196;5.980;2023-11-21T02:00:14;10.90;99.90
54824;DHT22;40724;53.196;5.980;2023-11-21T02:02:49;10.90;99.90
54824;DHT22;40724;53.196;5.980;2023-11-21T02:05:16;10.90;99.90
54824;DHT22;40724;53.196;5.980;2023-11-21T02:07:44;10.90;99.90
54824;DHT22;40724;53.196;5.980;2023-11-21T02:10:12;10.90;99.90
54824;DHT22;40724;53.196;5.980;2023-11-21T02:12:44;10.90;99.90
54824;DHT22;40724;53.196;5.980;2023-11-21T02:15:14;10.90;99.90
54824;DHT22;40724;53.196;5.980;2023-11-21T02:17:46;10.90;99.90
54824;DHT22;40724;53.196;5.980;2023-11-21T02:20:13;10.90;99.90
54824;DHT22;40724;53.196;5.980;2023-11-21T02:22:48;10.90;99.90
54824;DHT22;40724;53.196;5.980;2023-11-21T02:25:14;10.90;99.90
54824;DHT22;40724;53.196;5.980;2023-11-21T02:27:39;10.90;99.90
54824;DHT22;40724;53.196;5.980;2023-11-21T02:30:06;10.90;99.90
54824;DHT22;40724;53.196;5.980;2023-11-21T02:32:33;10.90;99.90
54824;DHT22;40724;53.196;5.980;2023-11-21T02:35:00;10.90;99.90
54824;DHT22;40724;53.196;5.980;2023-11-21T02:37:33;10.90;99.90
54824;DHT22;40724;53.196;5.980;2023-11-21T02:39:59;10.90;99.90
54824;DHT22;40724;53.196;5.980;2023-11-21T02:42:25;10.90;99.90
54824;DHT22;40724;53.196;5.980;2023-11-21T02:44:50;10.90;99.90
54824;DHT22;40724;53.196;5.980;2023-11-21T02:47:16;10.90;99.90
54824;DHT22;40724;53.196;5.980;2023-11-21T02:49:42;10.90;99.90
54824;DHT22;40724;53.196;5.980;2023-11-21T02:52:08;10.90;99.90
54824;DHT22;40724;53.196;5.980;2023-11-21T02:54:34;10.90;99.90
54824;DHT22;40724;53.196;5.980;2023-11-21T02:57:02;10.90;99.90
54824;DHT22;40724;53.196;5.980;2023-11-21T02:59:28;10.90;99.90
54824;DHT22;40724;53.196;5.980;2023-11-21T03:01:54;10.90;99.90
54824;DHT22;40724;53.196;5.980;2023-11-21T03:04:22;10.90;99.90
54824;DHT22;40724;53.196;5.980;2023-11-21T03:06:48;10.90;99.90
54824;DHT22;40724;53.196;5.980;2023-11-21T03:09:13;10.90;99.90
54824;DHT22;40724;53.196;5.980;2023-11-21T03:11:39;10.90;99.90
54824;DHT22;40724;53.196;5.980;2023-11-21T03:14:05;10.90;99.90
54824;DHT22;40724;53.196;5.980;2023-11-21T03:16:32;10.90;99.90
54824;DHT22;40724;53.196;5.980;2023-11-21T03:18:58;10.90;99.90
54824;DHT22;40724;53.196;5.980;2023-11-21T03:21:24;10.90;99.90
54824;DHT22;40724;53.196;5.980;2023-11-21T03:23:51;10.90;99.90
54824;DHT22;40724;53.196;5.980;2023-11-21T03:26:18;10.90;99.90
54824;DHT22;40724;53.196;5.980;2023-11-21T03:28:44;10.90;99.90
54824;DHT22;40724;53.196;5.980;2023-11-21T03:31:09;10.90;99.90
54824;DHT22;40724;53.196;5.980;2023-11-21T03:33:36;10.90;99.90
54824;DHT22;40724;53.196;5.980;2023-11-21T03:36:01;10.90;99.90
54824;DHT22;40724;53.196;5.980;2023-11-21T03:38:29;10.90;99.90
54824;DHT22;40724;53.196;5.980;2023-11-21T03:40:55;10.90;99.90
54824;DHT22;40724;53.196;5.980;2023-11-21T03:43:20;10.90;99.90
54824;DHT22;40724;53.196;5.980;2023-11-21T03:45:46;10.90;99.90
54824;DHT22;40724;53.196;5.980;2023-11-21T03:48:13;10.90;99.90
54824;DHT22;40724;53.196;5.980;2023-11-21T03:50:38;11.00;99.90
54824;DHT22;40724;53.196;5.980;2023-11-21T03:53:04;10.90;99.90
54824;DHT22;40724;53.196;5.980;2023-11-21T03:55:30;10.90;99.90
54824;DHT22;40724;53.196;5.980;2023-11-21T03:57:58;10.90;99.90
54824;DHT22;40724;53.196;5.980;2023-11-21T04:00:24;10.90;99.90
54824;DHT22;40724;53.196;5.980;2023-11-21T04:02:51;10.90;99.90
54824;DHT22;40724;53.196;5.980;2023-11-21T04:05:17;11.00;99.90
54824;DHT22;40724;53.196;5.980;2023-11-21T04:07:43;10.90;99.90
54824;DHT22;40724;53.196;5.980;2023-11-21T04:10:09;10.90;99.90
54824;DHT22;40724;53.196;5.980;2023-11-21T04:12:36;10.90;99.90
54824;DHT22;40724;53.196;5.980;2023-11-21T04:15:02;10.90;99.90
54824;DHT22;40724;53.196;5.980;2023-11-21T04:17:28;10.90;99.90
54824;DHT22;40724;53.196;5.980;2023-11-21T04:19:54;10.90;99.90
54824;DHT22;40724;53.196;5.980;2023-11-21T04:22:20;10.90;99.90
54824;DHT22;40724;53.196;5.980;2023-11-21T04:24:45;10.90;99.90
54824;DHT22;40724;53.196;5.980;2023-11-21T04:27:11;10.90;99.90
54824;DHT22;40724;53.196;5.980;2023-11-21T04:29:38;10.90;99.90
54824;DHT22;40724;53.196;5.980;2023-11-21T04:32:04;10.90;99.90
54824;DHT22;40724;53.196;5.980;2023-11-21T04:34:30;10.90;99.90
54824;DHT22;40724;53.196;5.980;2023-11-21T04:36:57;10.90;99.90
54824;DHT22;40724;53.196;5.980;2023-11-21T04:39:23;10.90;99.90
54824;DHT22;40724;53.196;5.980;2023-11-21T04:41:50;10.90;99.90
54824;DHT22;40724;53.196;5.980;2023-11-21T04:44:15;10.90;99.90
54824;DHT22;40724;53.196;5.980;2023-11-21T04:46:42;10.90;99.90
54824;DHT22;40724;53.196;5.980;2023-11-21T04:49:08;10.90;99.90
54824;DHT22;40724;53.196;5.980;2023-11-21T04:51:34;10.90;99.90
54824;DHT22;40724;53.196;5.980;2023-11-21T04:54:00;10.90;99.90
54824;DHT22;40724;53.196;5.980;2023-11-21T04:56:25;10.90;99.90
54824;DHT22;40724;53.196;5.980;2023-11-21T04:58:52;10.90;99.90
54824;DHT22;40724;53.196;5.980;2023-11-21T05:01:19;10.90;99.90
54824;DHT22;40724;53.196;5.980;2023-11-21T05:03:44;10.90;99.90
54824;DHT22;40724;53.196;5.980;2023-11-21T05:06:12;10.90;99.90
54824;DHT22;40724;53.196;5.980;2023-11-21T05:08:37;10.90;99.90
54824;DHT22;40724;53.196;5.980;2023-11-21T05:11:03;10.90;99.90
54824;DHT22;40724;53.196;5.980;2023-11-21T05:13:29;10.90;99.90
54824;DHT22;40724;53.196;5.980;2023-11-21T05:15:55;10.90;99.90
54824;DHT22;40724;53.196;5.980;2023-11-21T05:18:25;10.90;99.90
54824;DHT22;40724;53.196;5.980;2023-11-21T05:20:56;10.90;99.90
54824;DHT22;40724;53.196;5.980;2023-11-21T05:23:22;10.90;99.90
54824;DHT22;40724;53.196;5.980;2023-11-21T05:25:48;10.90;99.90
54824;DHT22;40724;53.196;5.980;2023-11-21T05:28:13;10.90;99.90
54824;DHT22;40724;53.196;5.980;2023-11-21T05:30:39;10.90;99.90
54824;DHT22;40724;53.196;5.980;2023-11-21T05:33:05;10.90;99.90
54824;DHT22;40724;53.196;5.980;2023-11-21T05:35:31;10.90;99.90
54824;DHT22;40724;53.196;5.980;2023-11-21T05:37:57;10.90;99.90
54824;DHT22;40724;53.196;5.980;2023-11-21T05:40:23;10.90;99.90
54824;DHT22;40724;53.196;5.980;2023-11-21T05:42:48;10.90;99.90
54824;DHT22;40724;53.196;5.980;2023-11-21T05:45:14;10.90;99.90
54824;DHT22;40724;53.196;5.980;2023-11-21T05:47:43;10.90;99.90
54824;DHT22;40724;53.196;5.980;2023-11-21T05:50:10;10.90;99.90
54824;DHT22;40724;53.196;5.980;2023-11-21T05:52:38;10.90;99.90
54824;DHT22;40724;53.196;5.980;2023-11-21T05:55:05;10.90;99.90
54824;DHT22;40724;53.196;5.980;2023-11-21T05:57:38;10.90;99.90
54824;DHT22;40724;53.196;5.980;2023-11-21T06:00:12;10.90;99.90
54824;DHT22;40724;53.196;5.980;2023-11-21T06:02:46;10.90;99.90
54824;DHT22;40724;53.196;5.980;2023-11-21T06:05:12;10.90;99.90
54824;DHT22;40724;53.196;5.980;2023-11-21T06:07:38;10.90;99.90
54824;DHT22;40724;53.196;5.980;2023-11-21T06:10:07;10.90;99.90
54824;DHT22;40724;53.196;5.980;2023-11-21T06:12:35;10.90;99.90
54824;DHT22;40724;53.196;5.980;2023-11-21T06:15:04;10.90;99.90
54824;DHT22;40724;53.196;5.980;2023-11-21T06:17:34;10.90;99.90
54824;DHT22;40724;53.196;5.980;2023-11-21T06:20:07;10.90;99.90
54824;DHT22;40724;53.196;5.980;2023-11-21T06:22:41;10.80;99.90
54824;DHT22;40724;53.196;5.980;2023-11-21T06:25:07;10.90;99.90
54824;DHT22;40724;53.196;5.980;2023-11-21T06:27:44;10.80;99.90
54824;DHT22;40724;53.196;5.980;2023-11-21T06:30:11;10.80;99.90
54824;DHT22;40724;53.196;5.980;2023-11-21T06:32:38;10.80;99.90
54824;DHT22;40724;53.196;5.980;2023-11-21T06:35:04;10.80;99.90
54824;DHT22;40724;53.196;5.980;2023-11-21T06:37:31;10.80;99.90
54824;DHT22;40724;53.196;5.980;2023-11-21T06:39:58;10.80;99.90
54824;DHT22;40724;53.196;5.980;2023-11-21T06:42:25;10.80;99.90
54824;DHT22;40724;53.196;5.980;2023-11-21T06:44:51;10.80;99.90
54824;DHT22;40724;53.196;5.980;2023-11-21T06:47:18;10.80;99.90
54824;DHT22;40724;53.196;5.980;2023-11-21T06:49:46;10.80;99.90
54824;DHT22;40724;53.196;5.980;2023-11-21T06:52:13;10.80;99.90
54824;DHT22;40724;53.196;5.980;2023-11-21T06:54:39;10.80;99.90
54824;DHT22;40724;53.196;5.980;2023-11-21T06:57:05;10.80;99.90
54824;DHT22;40724;53.196;5.980;2023-11-21T06:59:31;10.80;99.90
54824;DHT22;40724;53.196;5.980;2023-11-21T07:01:57;10.80;99.90
54824;DHT22;40724;53.196;5.980;2023-11-21T07:04:23;10.80;99.90
54824;DHT22;40724;53.196;5.980;2023-11-21T07:06:51;10.80;99.90
54824;DHT22;40724;53.196;5.980;2023-11-21T07:09:17;10.80;99.90
54824;DHT22;40724;53.196;5.980;2023-11-21T07:11:45;10.80;99.90
54824;DHT22;40724;53.196;5.980;2023-11-21T07:14:12;10.80;99.90
54824;DHT22;40724;53.196;5.980;2023-11-21T07:16:38;10.80;99.90
54824;DHT22;40724;53.196;5.980;2023-11-21T07:19:04;10.80;99.90
54824;DHT22;40724;53.196;5.980;2023-11-21T07:21:36;10.80;99.90
54824;DHT22;40724;53.196;5.980;2023-11-21T07:24:03;10.80;99.90
54824;DHT22;40724;53.196;5.980;2023-11-21T07:26:30;10.70;99.90
54824;DHT22;40724;53.196;5.980;2023-11-21T07:28:56;10.80;99.90
54824;DHT22;40724;53.196;5.980;2023-11-21T07:31:22;10.80;99.90
54824;DHT22;40724;53.196;5.980;2023-11-21T07:33:49;10.80;99.90
54824;DHT22;40724;53.196;5.980;2023-11-21T07:36:16;10.70;99.90
54824;DHT22;40724;53.196;5.980;2023-11-21T07:38:44;10.80;99.90
54824;DHT22;40724;53.196;5.980;2023-11-21T07:41:10;10.70;99.90
54824;DHT22;40724;53.196;5.980;2023-11-21T07:43:37;10.70;99.90
54824;DHT22;40724;53.196;5.980;2023-11-21T07:46:03;10.70;99.90
54824;DHT22;40724;53.196;5.980;2023-11-21T07:48:33;10.70;99.90
54824;DHT22;40724;53.196;5.980;2023-11-21T07:51:02;10.70;99.90
54824;DHT22;40724;53.196;5.980;2023-11-21T07:53:32;10.70;99.90
54824;DHT22;40724;53.196;5.980;2023-11-21T07:56:00;10.70;99.90
54824;DHT22;40724;53.196;5.980;2023-11-21T07:58:28;10.70;99.90
54824;DHT22;40724;53.196;5.980;2023-11-21T08:00:54;10.70;99.90
54824;DHT22;40724;53.196;5.980;2023-11-21T08:03:20;10.70;99.90
54824;DHT22;40724;53.196;5.980;2023-11-21T08:05:46;10.70;99.90
54824;DHT22;40724;53.196;5.980;2023-11-21T08:08:12;10.70;99.90
54824;DHT22;40724;53.196;5.980;2023-11-21T08:10:38;10.70;99.90
54824;DHT22;40724;53.196;5.980;2023-11-21T08:13:05;10.70;99.90
54824;DHT22;40724;53.196;5.980;2023-11-21T08:15:31;10.70;99.90
54824;DHT22;40724;53.196;5.980;2023-11-21T08:17:58;10.70;99.90
54824;DHT22;40724;53.196;5.980;2023-11-21T08:20:27;10.70;99.90
54824;DHT22;40724;53.196;5.980;2023-11-21T08:22:53;10.70;99.90
54824;DHT22;40724;53.196;5.980;2023-11-21T08:25:20;10.70;99.90
54824;DHT22;40724;53.196;5.980;2023-11-21T08:27:46;10.70;99.90
54824;DHT22;40724;53.196;5.980;2023-11-21T08:30:13;10.70;99.90
54824;DHT22;40724;53.196;5.980;2023-11-21T08:32:40;10.70;99.90
54824;DHT22;40724;53.196;5.980;2023-11-21T08:35:07;10.60;99.90
54824;DHT22;40724;53.196;5.980;2023-11-21T08:37:33;10.70;99.90
54824;DHT22;40724;53.196;5.980;2023-11-21T08:40:06;10.60;99.90
54824;DHT22;40724;53.196;5.980;2023-11-21T08:42:37;10.70;99.90
54824;DHT22;40724;53.196;5.980;2023-11-21T08:45:04;10.70;99.90
54824;DHT22;40724;53.196;5.980;2023-11-21T08:47:31;10.70;99.90
54824;DHT22;40724;53.196;5.980;2023-11-21T08:49:57;10.60;99.90
54824;DHT22;40724;53.196;5.980;2023-11-21T08:52:24;10.60;99.90
54824;DHT22;40724;53.196;5.980;2023-11-21T08:54:49;10.60;99.90
54824;DHT22;40724;53.196;5.980;2023-11-21T08:57:25;10.60;99.90
54824;DHT22;40724;53.196;5.980;2023-11-21T08:59:51;10.60;99.90
54824;DHT22;40724;53.196;5.980;2023-11-21T09:02:26;10.60;99.90
54824;DHT22;40724;53.196;5.980;2023-11-21T09:04:52;10.70;99.90
54824;DHT22;40724;53.196;5.980;2023-11-21T09:07:19;10.70;99.90
54824;DHT22;40724;53.196;5.980;2023-11-21T09:09:49;10.70;99.90
54824;DHT22;40724;53.196;5.980;2023-11-21T09:12:15;10.70;99.90
54824;DHT22;40724;53.196;5.980;2023-11-21T09:14:42;10.70;99.90
54824;DHT22;40724;53.196;5.980;2023-11-21T09:17:09;10.70;99.90
54824;DHT22;40724;53.196;5.980;2023-11-21T09:19:40;10.70;99.90
54824;DHT22;40724;53.196;5.980;2023-11-21T09:22:06;10.70;99.90
54824;DHT22;40724;53.196;5.980;2023-11-21T09:24:32;10.70;99.90
54824;DHT22;40724;53.196;5.980;2023-11-21T09:26:58;10.70;99.90
54824;DHT22;40724;53.196;5.980;2023-11-21T09:29:28;10.70;99.90
54824;DHT22;40724;53.196;5.980;2023-11-21T09:31:54;10.70;99.90
54824;DHT22;40724;53.196;5.980;2023-11-21T09:34:21;10.70;99.90
54824;DHT22;40724;53.196;5.980;2023-11-21T09:36:48;10.70;99.90
54824;DHT22;40724;53.196;5.980;2023-11-21T09:39:14;10.70;99.90
54824;DHT22;40724;53.196;5.980;2023-11-21T09:41:49;10.70;99.90
54824;DHT22;40724;53.196;5.980;2023-11-21T09:44:18;10.70;99.90
54824;DHT22;40724;53.196;5.980;2023-11-21T09:46:48;10.70;99.90
54824;DHT22;40724;53.196;5.980;2023-11-21T09:49:18;10.70;99.90
54824;DHT22;40724;53.196;5.980;2023-11-21T09:51:47;10.70;99.90
54824;DHT22;40724;53.196;5.980;2023-11-21T09:54:15;10.70;99.90
54824;DHT22;40724;53.196;5.980;2023-11-21T09:56:43;10.80;99.90
54824;DHT22;40724;53.196;5.980;2023-11-21T09:59:13;10.80;99.90
54824;DHT22;40724;53.196;5.980;2023-11-21T10:01:42;10.80;99.90
54824;DHT22;40724;53.196;5.980;2023-11-21T10:04:09;10.80;99.90
54824;DHT22;40724;53.196;5.980;2023-11-21T10:06:41;10.90;99.90
54824;DHT22;40724;53.196;5.980;2023-11-21T10:09:14;10.90;99.90
54824;DHT22;40724;53.196;5.980;2023-11-21T10:11:41;10.90;99.90
54824;DHT22;40724;53.196;5.980;2023-11-21T10:14:10;10.90;99.90
54824;DHT22;40724;53.196;5.980;2023-11-21T10:16:40;10.90;99.90
54824;DHT22;40724;53.196;5.980;2023-11-21T10:19:10;10.90;99.90
54824;DHT22;40724;53.196;5.980;2023-11-21T10:21:38;10.90;99.90
54824;DHT22;40724;53.196;5.980;2023-11-21T10:24:04;10.90;99.90
54824;DHT22;40724;53.196;5.980;2023-11-21T10:26:32;10.90;99.90
54824;DHT22;40724;53.196;5.980;2023-11-21T10:29:00;10.90;99.90
54824;DHT22;40724;53.196;5.980;2023-11-21T10:31:34;10.90;99.90
54824;DHT22;40724;53.196;5.980;2023-11-21T10:34:14;10.90;99.90
54824;DHT22;40724;53.196;5.980;2023-11-21T10:36:41;10.90;99.90
54824;DHT22;40724;53.196;5.980;2023-11-21T10:39:07;10.90;99.90
54824;DHT22;40724;53.196;5.980;2023-11-21T10:41:33;10.90;99.90
54824;DHT22;40724;53.196;5.980;2023-11-21T10:44:01;10.90;99.90
54824;DHT22;40724;53.196;5.980;2023-11-21T10:46:30;10.90;99.90
54824;DHT22;40724;53.196;5.980;2023-11-21T10:48:56;10.90;99.90
54824;DHT22;40724;53.196;5.980;2023-11-21T10:51:22;10.90;99.90
54824;DHT22;40724;53.196;5.980;2023-11-21T10:53:51;10.90;99.90
54824;DHT22;40724;53.196;5.980;2023-11-21T10:56:18;10.90;99.90
54824;DHT22;40724;53.196;5.980;2023-11-21T10:58:48;10.90;99.90
54824;DHT22;40724;53.196;5.980;2023-11-21T11:01:17;10.90;99.90
54824;DHT22;40724;53.196;5.980;2023-11-21T11:03:44;10.90;99.90
54824;DHT22;40724;53.196;5.980;2023-11-21T11:06:10;10.90;99.90
54824;DHT22;40724;53.196;5.980;2023-11-21T11:08:38;10.90;99.90
54824;DHT22;40724;53.196;5.980;2023-11-21T11:11:06;10.90;99.90
54824;DHT22;40724;53.196;5.980;2023-11-21T11:13:32;11.00;99.90
54824;DHT22;40724;53.196;5.980;2023-11-21T11:18:29;11.20;99.90
54824;DHT22;40724;53.196;5.980;2023-11-21T11:29:28;14.70;99.90
54824;DHT22;40724;53.196;5.980;2023-11-21T11:37:24;18.00;99.90
54824;DHT22;40724;53.196;5.980;2023-11-21T11:39:52;19.20;99.90
54824;DHT22;40724;53.196;5.980;2023-11-21T11:42:21;19.10;99.90
54824;DHT22;40724;53.196;5.980;2023-11-21T11:44:50;19.10;99.90
54824;DHT22;40724;53.196;5.980;2023-11-21T11:47:25;19.40;99.90
54824;DHT22;40724;53.196;5.980;2023-11-21T11:50:08;20.00;99.90
54824;DHT22;40724;53.196;5.980;2023-11-21T11:52:45;20.70;99.50
54824;DHT22;40724;53.196;5.980;2023-11-21T11:55:15;21.40;98.60
54824;DHT22;40724;53.196;5.980;2023-11-21T11:57:48;21.50;98.00
54824;DHT22;40724;53.196;5.980;2023-11-21T12:17:49;21.60;97.80
54824;DHT22;40724;53.196;5.980;2023-11-21T12:20:18;19.50;98.90
54824;DHT22;40724;53.196;5.980;2023-11-21T12:22:49;19.20;99.30
54824;DHT22;40724;53.196;5.980;2023-11-21T12:25:19;19.30;99.50
54824;DHT22;40724;53.196;5.980;2023-11-21T12:27:46;19.50;99.40
54824;DHT22;40724;53.196;5.980;2023-11-21T12:30:13;19.80;99.30
54824;DHT22;40724;53.196;5.980;2023-11-21T12:32:43;20.00;99.20
54824;DHT22;40724;53.196;5.980;2023-11-21T12:35:10;20.40;99.00
54824;DHT22;40724;53.196;5.980;2023-11-21T12:37:39;20.60;98.90
54824;DHT22;40724;53.196;5.980;2023-11-21T12:40:06;20.50;98.70
54824;DHT22;40724;53.196;5.980;2023-11-21T12:42:45;20.10;98.60
54824;DHT22;40724;53.196;5.980;2023-11-21T12:45:21;19.90;98.60
54824;DHT22;40724;53.196;5.980;2023-11-21T12:47:52;19.80;98.80
54824;DHT22;40724;53.196;5.980;2023-11-21T12:50:23;19.60;99.00
54824;DHT22;40724;53.196;5.980;2023-11-21T12:52:52;19.70;99.10
54824;DHT22;40724;53.196;5.980;2023-11-21T12:55:22;20.10;99.00
54824;DHT22;40724;53.196;5.980;2023-11-21T12:57:51;20.60;98.90
54824;DHT22;40724;53.196;5.980;2023-11-21T13:00:18;21.00;98.70
54824;DHT22;40724;53.196;5.980;2023-11-21T13:02:56;20.90;98.40
54824;DHT22;40724;53.196;5.980;2023-11-21T13:05:25;20.60;98.20
54824;DHT22;40724;53.196;5.980;2023-11-21T13:07:51;20.30;98.40
54824;DHT22;40724;53.196;5.980;2023-11-21T13:10:22;20.00;98.60
54824;DHT22;40724;53.196;5.980;2023-11-21T13:12:51;19.60;98.70
54824;DHT22;40724;53.196;5.980;2023-11-21T13:15:17;19.40;99.00
54824;DHT22;40724;53.196;5.980;2023-11-21T13:17:44;19.20;99.20
54824;DHT22;40724;53.196;5.980;2023-11-21T13:32:42;18.90;99.40
54824;DHT22;40724;53.196;5.980;2023-11-21T13:37:40;18.10;99.30
54824;DHT22;40724;53.196;5.980;2023-11-21T13:47:34;17.60;99.20
54824;DHT22;40724;53.196;5.980;2023-11-21T13:52:28;17.00;99.70
54824;DHT22;40724;53.196;5.980;2023-11-21T14:02:20;16.70;99.80
54824;DHT22;40724;53.196;5.980;2023-11-21T14:04:53;16.10;99.90
54824;DHT22;40724;53.196;5.980;2023-11-21T14:07:25;15.90;99.90
54824;DHT22;40724;53.196;5.980;2023-11-21T14:10:03;15.70;99.90
54824;DHT22;40724;53.196;5.980;2023-11-21T14:12:30;15.50;99.90
54824;DHT22;40724;53.196;5.980;2023-11-21T14:15:01;15.40;99.90
54824;DHT22;40724;53.196;5.980;2023-11-21T14:19:56;15.30;99.90
54824;DHT22;40724;53.196;5.980;2023-11-21T14:39:30;15.10;99.90
54824;DHT22;40724;53.196;5.980;2023-11-21T14:41:56;14.20;99.90
54824;DHT22;40724;53.196;5.980;2023-11-21T14:44:24;14.10;99.90
54824;DHT22;40724;53.196;5.980;2023-11-21T14:46:53;14.00;99.90
54824;DHT22;40724;53.196;5.980;2023-11-21T14:49:20;13.90;99.90
54824;DHT22;40724;53.196;5.980;2023-11-21T14:51:48;13.80;99.90
54824;DHT22;40724;53.196;5.980;2023-11-21T14:57:15;13.70;99.90
54824;DHT22;40724;53.196;5.980;2023-11-21T15:05:07;13.60;99.90
54824;DHT22;40724;53.196;5.980;2023-11-21T15:07:39;13.30;99.90
54824;DHT22;40724;53.196;5.980;2023-11-21T15:10:11;13.20;99.90
